createdAt,value
2023-03-22T00:00:55.835Z,22.90
2023-03-22T00:03:23.326Z,24.88
2023-03-22T00:05:50.457Z,24.02
2023-03-22T00:08:17.216Z,23.80
2023-03-22T00:10:43.931Z,23.65
2023-03-22T00:13:11.653Z,23.25
2023-03-22T00:15:38.265Z,22.45
2023-03-22T00:18:05.902Z,25.88
2023-03-22T00:20:37.617Z,25.63
2023-03-22T00:23:04.445Z,26.42
2023-03-22T00:25:31.281Z,24.55
2023-03-22T00:27:57.939Z,24.77
2023-03-22T00:30:24.631Z,23.80
2023-03-22T00:32:51.249Z,25.10
2023-03-22T00:35:18.028Z,24.88
2023-03-22T00:37:44.729Z,24.10
2023-03-22T00:40:13.162Z,22.75
2023-03-22T00:42:40.980Z,22.25
2023-03-22T00:45:10.470Z,22.90
2023-03-22T00:47:37.822Z,21.77
2023-03-22T00:50:06.436Z,22.02
2023-03-22T00:52:33.289Z,21.92
2023-03-22T00:55:00.026Z,21.92
2023-03-22T00:57:26.711Z,24.05
2023-03-22T00:59:54.030Z,26.52
2023-03-22T01:02:20.712Z,25.15
2023-03-22T01:04:48.273Z,25.35
2023-03-22T01:07:18.087Z,26.30
2023-03-22T01:09:45.608Z,24.10
2023-03-22T01:12:12.688Z,25.67
2023-03-22T01:14:39.994Z,24.00
2023-03-22T01:17:07.364Z,24.20
2023-03-22T01:19:35.401Z,26.42
2023-03-22T01:22:03.244Z,24.35
2023-03-22T01:24:29.935Z,24.05
2023-03-22T01:26:57.146Z,22.77
2023-03-22T01:29:25.064Z,23.58
2023-03-22T01:31:52.207Z,24.80
2023-03-22T01:34:18.841Z,23.88
2023-03-22T01:36:45.593Z,23.30
2023-03-22T01:39:12.228Z,25.95
2023-03-22T01:41:38.969Z,23.60
2023-03-22T01:44:18.584Z,23.70
2023-03-22T01:46:47.023Z,23.25
2023-03-22T01:49:23.359Z,25.40
2023-03-22T01:51:52.068Z,22.50
2023-03-22T01:54:32.568Z,25.35
2023-03-22T01:56:59.582Z,25.50
2023-03-22T01:59:27.242Z,24.25
2023-03-22T02:01:54.415Z,21.27
2023-03-22T02:04:34.122Z,22.65
2023-03-22T02:07:15.634Z,21.45
2023-03-22T02:09:42.965Z,22.52
2023-03-22T02:12:36.741Z,22.55
2023-03-22T02:15:47.126Z,24.02
2023-03-22T02:18:45.996Z,25.25
2023-03-22T02:21:15.172Z,25.55
2023-03-22T02:23:59.713Z,21.30
2023-03-22T02:26:29.244Z,22.35
2023-03-22T02:29:12.766Z,21.83
2023-03-22T02:31:57.937Z,23.45
2023-03-22T02:34:58.307Z,22.98
2023-03-22T02:37:49.473Z,27.55
2023-03-22T02:40:34.761Z,23.67
2023-03-22T02:43:42.307Z,19.67
2023-03-22T02:46:20.388Z,22.35
2023-03-22T02:48:59.940Z,21.15
2023-03-22T02:51:37.514Z,22.23
2023-03-22T02:54:09.498Z,24.65
2023-03-22T02:56:44.422Z,23.83
2023-03-22T02:59:12.382Z,24.63
2023-03-22T03:01:46.473Z,24.02
2023-03-22T03:04:17.793Z,22.92
2023-03-22T03:06:46.352Z,20.83
2023-03-22T03:09:18.320Z,19.52
2023-03-22T03:11:50.988Z,20.13
2023-03-22T03:14:28.304Z,19.00
2023-03-22T03:17:06.484Z,19.25
2023-03-22T03:19:52.628Z,17.50
2023-03-22T03:22:22.203Z,19.30
2023-03-22T03:24:56.444Z,21.50
2023-03-22T03:27:41.281Z,17.48
2023-03-22T03:30:10.468Z,20.42
2023-03-22T03:32:56.026Z,23.80
2023-03-22T03:35:27.389Z,20.10
2023-03-22T03:37:57.792Z,18.60
2023-03-22T03:40:29.022Z,21.35
2023-03-22T03:42:56.675Z,21.00
2023-03-22T03:45:23.638Z,21.88
2023-03-22T03:47:57.145Z,18.42
2023-03-22T03:50:25.666Z,19.08
2023-03-22T03:52:53.916Z,18.85
2023-03-22T03:55:22.132Z,21.75
2023-03-22T03:57:48.834Z,25.13
2023-03-22T04:00:16.264Z,20.40
2023-03-22T04:02:43.714Z,20.42
2023-03-22T04:05:11.744Z,20.33
2023-03-22T04:07:38.833Z,18.75
2023-03-22T04:10:06.325Z,19.83
2023-03-22T04:12:33.142Z,19.90
2023-03-22T04:14:59.981Z,20.20
2023-03-22T04:17:29.280Z,18.88
2023-03-22T04:19:59.296Z,20.38
2023-03-22T04:22:27.902Z,17.20
2023-03-22T04:24:54.501Z,18.65
2023-03-22T04:27:22.469Z,18.13
2023-03-22T04:29:51.197Z,18.15
2023-03-22T04:32:26.368Z,18.25
2023-03-22T04:34:53.405Z,17.80
2023-03-22T04:37:22.694Z,19.52
2023-03-22T04:39:49.417Z,17.63
2023-03-22T04:42:16.110Z,17.25
2023-03-22T04:44:42.764Z,18.63
2023-03-22T04:47:09.485Z,19.55
2023-03-22T04:49:36.170Z,17.30
2023-03-22T04:52:03.094Z,16.35
2023-03-22T04:54:29.781Z,17.58
2023-03-22T04:56:56.410Z,18.67
2023-03-22T04:59:23.061Z,18.13
2023-03-22T05:01:51.501Z,22.15
2023-03-22T05:04:19.114Z,17.65
2023-03-22T05:06:46.630Z,18.85
2023-03-22T05:09:13.680Z,18.15
2023-03-22T05:11:40.848Z,15.82
2023-03-22T05:14:08.981Z,16.58
2023-03-22T05:16:36.229Z,16.95
2023-03-22T05:19:03.118Z,18.70
2023-03-22T05:21:37.029Z,17.73
2023-03-22T05:24:04.073Z,17.15
2023-03-22T05:26:30.959Z,17.67
2023-03-22T05:28:57.790Z,17.60
2023-03-22T05:31:24.578Z,18.67
2023-03-22T05:33:52.299Z,18.30
2023-03-22T05:36:20.906Z,17.63
2023-03-22T05:38:47.834Z,18.77
2023-03-22T05:41:14.837Z,18.35
2023-03-22T05:43:41.798Z,19.48
2023-03-22T05:46:09.975Z,18.65
2023-03-22T05:48:37.698Z,16.55
2023-03-22T05:51:09.053Z,15.75
2023-03-22T05:53:35.831Z,17.92
2023-03-22T05:56:02.430Z,17.63
2023-03-22T05:58:32.239Z,15.95
2023-03-22T06:01:10.470Z,15.73
2023-03-22T06:03:38.311Z,16.50
2023-03-22T06:06:07.043Z,16.83
2023-03-22T06:08:34.228Z,15.43
2023-03-22T06:11:01.108Z,15.48
2023-03-22T06:13:27.766Z,16.17
2023-03-22T06:15:54.575Z,16.10
2023-03-22T06:18:21.197Z,15.32
2023-03-22T06:20:47.830Z,16.85
2023-03-22T06:23:14.505Z,15.98
2023-03-22T06:25:41.153Z,16.17
2023-03-22T06:28:08.849Z,17.25
2023-03-22T06:30:35.695Z,14.52
2023-03-22T06:33:05.232Z,16.33
2023-03-22T06:35:33.066Z,17.48
2023-03-22T06:38:00.565Z,18.38
2023-03-22T06:40:27.547Z,17.98
2023-03-22T06:42:57.024Z,18.90
2023-03-22T06:45:23.831Z,17.95
2023-03-22T06:47:50.816Z,17.00
2023-03-22T06:50:17.508Z,17.48
2023-03-22T06:52:44.127Z,17.85
2023-03-22T06:55:10.829Z,17.25
2023-03-22T06:57:37.472Z,15.90
2023-03-22T07:00:05.404Z,16.17
2023-03-22T07:02:32.172Z,17.60
2023-03-22T07:04:58.889Z,15.70
2023-03-22T07:07:25.632Z,15.93
2023-03-22T07:09:57.136Z,14.18
2023-03-22T07:12:23.700Z,17.23
2023-03-22T07:14:50.505Z,19.35
2023-03-22T07:17:17.172Z,14.77
2023-03-22T07:19:45.017Z,15.63
2023-03-22T07:22:11.626Z,15.60
2023-03-22T07:24:47.204Z,15.82
2023-03-22T07:27:18.236Z,15.38
2023-03-22T07:29:45.078Z,15.32
2023-03-22T07:32:11.797Z,15.18
2023-03-22T07:34:38.583Z,15.63
2023-03-22T07:37:05.338Z,14.63
2023-03-22T07:39:32.079Z,14.27
2023-03-22T07:41:58.733Z,14.32
2023-03-22T07:44:25.804Z,14.88
2023-03-22T07:46:52.653Z,15.93
2023-03-22T07:49:19.451Z,14.18
2023-03-22T07:51:46.259Z,13.68
2023-03-22T07:54:20.192Z,16.30
2023-03-22T07:56:57.646Z,13.55
2023-03-22T07:59:25.106Z,15.82
2023-03-22T08:01:51.813Z,14.63
2023-03-22T08:04:19.874Z,15.88
2023-03-22T08:06:46.761Z,15.57
2023-03-22T08:09:13.332Z,13.90
2023-03-22T08:11:39.944Z,14.98
2023-03-22T08:14:06.622Z,15.00
2023-03-22T08:16:33.495Z,16.50
2023-03-22T08:19:00.531Z,15.27
2023-03-22T08:21:27.504Z,15.02
2023-03-22T08:23:54.430Z,15.27
2023-03-22T08:26:22.431Z,16.08
2023-03-22T08:28:49.080Z,17.35
2023-03-22T08:31:17.241Z,16.15
2023-03-22T08:33:44.633Z,16.35
2023-03-22T08:36:14.141Z,17.45
2023-03-22T08:38:42.599Z,15.07
2023-03-22T08:41:09.551Z,16.15
2023-03-22T08:43:36.256Z,15.63
2023-03-22T08:46:03.039Z,15.63
2023-03-22T08:48:30.830Z,14.85
2023-03-22T08:50:58.244Z,12.15
2023-03-22T08:53:25.117Z,12.63
2023-03-22T08:55:51.785Z,11.80
2023-03-22T08:58:20.129Z,12.82
2023-03-22T09:00:49.376Z,12.57
2023-03-22T09:03:17.006Z,13.52
2023-03-22T09:05:45.093Z,9.57
2023-03-22T09:08:18.569Z,9.73
2023-03-22T09:10:51.690Z,11.35
2023-03-22T09:13:18.999Z,11.25
2023-03-22T09:15:45.879Z,11.50
2023-03-22T09:18:13.023Z,10.75
2023-03-22T09:20:40.191Z,9.48
2023-03-22T09:23:07.139Z,9.23
2023-03-22T09:25:33.855Z,7.47
2023-03-22T09:28:00.606Z,9.38
2023-03-22T09:30:27.758Z,8.80
2023-03-22T09:32:54.810Z,9.18
2023-03-22T09:35:22.053Z,8.98
2023-03-22T09:37:49.570Z,10.02
2023-03-22T09:40:17.823Z,11.48
2023-03-22T09:42:46.999Z,10.35
2023-03-22T09:45:21.508Z,10.85
2023-03-22T09:47:51.242Z,10.13
2023-03-22T09:50:27.061Z,7.93
2023-03-22T09:52:54.168Z,8.48
2023-03-22T09:55:58.446Z,7.65
2023-03-22T09:58:51.060Z,9.27
2023-03-22T10:01:35.479Z,7.70
2023-03-22T10:04:06.431Z,7.07
2023-03-22T10:06:33.273Z,8.35
2023-03-22T10:09:14.968Z,8.10
2023-03-22T10:12:05.204Z,9.15
2023-03-22T10:14:43.614Z,8.73
2023-03-22T10:17:13.513Z,10.90
2023-03-22T10:19:58.828Z,10.55
2023-03-22T10:22:30.550Z,9.95
2023-03-22T10:24:57.706Z,10.02
2023-03-22T10:27:27.006Z,8.75
2023-03-22T10:30:04.210Z,9.93
2023-03-22T10:33:13.640Z,9.52
2023-03-22T10:35:42.052Z,8.27
2023-03-22T10:38:18.953Z,8.25
2023-03-22T10:40:46.481Z,8.95
2023-03-22T10:43:20.413Z,8.75
2023-03-22T10:45:47.226Z,8.88
2023-03-22T10:48:35.550Z,9.07
2023-03-22T10:51:02.447Z,8.05
2023-03-22T10:53:41.591Z,7.38
2023-03-22T10:56:14.539Z,7.28
2023-03-22T10:58:41.399Z,6.82
2023-03-22T11:01:13.676Z,8.07
2023-03-22T11:03:43.489Z,7.18
2023-03-22T11:06:15.956Z,7.45
2023-03-22T11:08:46.855Z,7.15
2023-03-22T11:11:25.715Z,7.18
2023-03-22T11:14:30.771Z,8.30
2023-03-22T11:17:06.434Z,7.55
2023-03-22T11:19:37.134Z,8.40
2023-03-22T11:22:34.779Z,8.27
2023-03-22T11:25:02.270Z,8.32
2023-03-22T11:27:33.057Z,7.95
2023-03-22T11:30:08.758Z,8.73
2023-03-22T11:32:37.753Z,8.07
2023-03-22T11:35:22.337Z,7.68
2023-03-22T11:37:52.008Z,7.20
2023-03-22T11:40:25.191Z,6.32
2023-03-22T11:42:57.034Z,6.22
2023-03-22T11:45:31.863Z,7.30
2023-03-22T11:48:13.845Z,6.43
2023-03-22T11:50:42.286Z,6.88
2023-03-22T11:53:14.828Z,7.47
2023-03-22T11:55:42.133Z,6.63
2023-03-22T11:58:24.651Z,8.10
2023-03-22T12:00:52.604Z,6.55
2023-03-22T12:03:23.857Z,6.70
2023-03-22T12:05:52.510Z,6.25
2023-03-22T12:08:42.881Z,6.00
2023-03-22T12:11:18.104Z,7.38
2023-03-22T12:16:46.828Z,7.00
2023-03-22T12:19:20.272Z,5.90
2023-03-22T12:21:49.610Z,6.32
2023-03-22T12:24:32.944Z,6.82
2023-03-22T12:27:21.673Z,5.72
2023-03-22T12:30:07.397Z,5.68
2023-03-22T12:32:42.041Z,6.22
2023-03-22T12:35:23.933Z,6.70
2023-03-22T12:37:53.388Z,6.90
2023-03-22T12:40:27.679Z,6.45
2023-03-22T12:43:15.850Z,6.57
2023-03-22T12:45:49.312Z,6.57
2023-03-22T12:48:40.877Z,7.55
2023-03-22T12:51:09.752Z,6.00
2023-03-22T12:53:48.667Z,6.38
2023-03-22T12:56:18.488Z,7.03
2023-03-22T12:58:51.919Z,6.07
2023-03-22T13:01:28.857Z,6.45
2023-03-22T13:03:57.747Z,6.28
2023-03-22T13:06:33.235Z,6.07
2023-03-22T13:09:19.383Z,5.22
2023-03-22T13:12:17.782Z,8.68
2023-03-22T13:14:54.145Z,5.97
2023-03-22T13:17:23.556Z,6.38
2023-03-22T13:19:55.906Z,6.03
2023-03-22T13:22:30.817Z,5.88
2023-03-22T13:25:12.630Z,6.28
2023-03-22T13:27:54.022Z,7.40
2023-03-22T13:30:21.774Z,6.80
2023-03-22T13:32:56.608Z,5.93
2023-03-22T13:35:28.322Z,5.20
2023-03-22T13:38:02.685Z,6.30
2023-03-22T13:40:46.306Z,6.43
2023-03-22T13:43:31.790Z,5.70
2023-03-22T13:46:07.106Z,6.63
2023-03-22T13:48:52.533Z,6.72
2023-03-22T13:54:14.040Z,6.07
2023-03-22T13:57:01.502Z,6.18
2023-03-22T13:59:29.736Z,5.85
2023-03-22T14:02:16.032Z,6.15
2023-03-22T14:05:08.100Z,6.18
2023-03-22T14:08:04.341Z,7.00
2023-03-22T14:10:51.473Z,7.63
2023-03-22T14:13:39.788Z,7.35
2023-03-22T14:16:11.845Z,6.22
2023-03-22T14:18:43.371Z,6.80
2023-03-22T14:21:15.990Z,7.03
